sensor_id;sensor_type;location;lat;lon;timestamp;P1;durP1;ratioP1;P2;durP2;ratioP2
13244;SDS011;6689;53.400;12.486;2023-03-23T00:01:00;8.07;;;3.88;;
13244;SDS011;6689;53.400;12.486;2023-03-23T00:03:29;7.38;;;3.60;;
13244;SDS011;6689;53.400;12.486;2023-03-23T00:05:57;7.93;;;4.20;;
13244;SDS011;6689;53.400;12.486;2023-03-23T00:08:32;7.88;;;4.18;;
13244;SDS011;6689;53.400;12.486;2023-03-23T00:11:02;6.95;;;3.63;;
13244;SDS011;6689;53.400;12.486;2023-03-23T00:13:30;8.40;;;3.83;;
13244;SDS011;6689;53.400;12.486;2023-03-23T00:15:58;7.88;;;4.20;;
13244;SDS011;6689;53.400;12.486;2023-03-23T00:18:25;6.40;;;4.20;;
13244;SDS011;6689;53.400;12.486;2023-03-23T00:20:53;5.22;;;4.45;;
13244;SDS011;6689;53.400;12.486;2023-03-23T00:23:23;12.15;;;5.13;;
13244;SDS011;6689;53.400;12.486;2023-03-23T00:25:55;6.90;;;4.55;;
13244;SDS011;6689;53.400;12.486;2023-03-23T00:28:23;8.00;;;4.72;;
13244;SDS011;6689;53.400;12.486;2023-03-23T00:30:56;7.13;;;5.05;;
13244;SDS011;6689;53.400;12.486;2023-03-23T00:33:25;9.10;;;4.72;;
13244;SDS011;6689;53.400;12.486;2023-03-23T00:35:54;8.05;;;4.47;;
13244;SDS011;6689;53.400;12.486;2023-03-23T00:38:22;6.03;;;4.30;;
13244;SDS011;6689;53.400;12.486;2023-03-23T00:40:53;9.07;;;4.75;;
13244;SDS011;6689;53.400;12.486;2023-03-23T00:43:22;6.57;;;4.55;;
13244;SDS011;6689;53.400;12.486;2023-03-23T00:45:54;6.88;;;4.88;;
13244;SDS011;6689;53.400;12.486;2023-03-23T00:48:22;7.95;;;4.72;;
13244;SDS011;6689;53.400;12.486;2023-03-23T00:50:50;5.85;;;4.10;;
13244;SDS011;6689;53.400;12.486;2023-03-23T00:53:18;4.82;;;3.97;;
13244;SDS011;6689;53.400;12.486;2023-03-23T00:55:47;6.18;;;4.20;;
13244;SDS011;6689;53.400;12.486;2023-03-23T00:58:16;6.47;;;4.05;;
13244;SDS011;6689;53.400;12.486;2023-03-23T01:00:43;9.07;;;4.78;;
13244;SDS011;6689;53.400;12.486;2023-03-23T01:03:10;7.40;;;4.15;;
13244;SDS011;6689;53.400;12.486;2023-03-23T01:05:43;8.52;;;4.82;;
13244;SDS011;6689;53.400;12.486;2023-03-23T01:08:12;7.13;;;4.03;;
13244;SDS011;6689;53.400;12.486;2023-03-23T01:10:41;5.38;;;3.90;;
13244;SDS011;6689;53.400;12.486;2023-03-23T01:13:08;5.88;;;3.63;;
13244;SDS011;6689;53.400;12.486;2023-03-23T01:15:39;5.90;;;4.30;;
13244;SDS011;6689;53.400;12.486;2023-03-23T01:18:07;7.30;;;4.18;;
13244;SDS011;6689;53.400;12.486;2023-03-23T01:20:35;8.45;;;5.07;;
13244;SDS011;6689;53.400;12.486;2023-03-23T01:23:03;5.70;;;4.50;;
13244;SDS011;6689;53.400;12.486;2023-03-23T01:25:34;6.85;;;4.32;;
13244;SDS011;6689;53.400;12.486;2023-03-23T01:28:02;8.45;;;4.32;;
13244;SDS011;6689;53.400;12.486;2023-03-23T01:30:31;8.40;;;4.25;;
13244;SDS011;6689;53.400;12.486;2023-03-23T01:33:00;5.85;;;4.60;;
13244;SDS011;6689;53.400;12.486;2023-03-23T01:35:27;9.02;;;5.20;;
13244;SDS011;6689;53.400;12.486;2023-03-23T01:37:55;6.65;;;3.90;;
13244;SDS011;6689;53.400;12.486;2023-03-23T01:40:23;5.70;;;4.43;;
13244;SDS011;6689;53.400;12.486;2023-03-23T01:42:53;5.05;;;4.07;;
13244;SDS011;6689;53.400;12.486;2023-03-23T01:45:22;6.50;;;3.78;;
13244;SDS011;6689;53.400;12.486;2023-03-23T01:47:55;5.50;;;2.97;;
13244;SDS011;6689;53.400;12.486;2023-03-23T01:50:30;7.32;;;2.63;;
13244;SDS011;6689;53.400;12.486;2023-03-23T01:53:02;6.43;;;2.85;;
13244;SDS011;6689;53.400;12.486;2023-03-23T01:55:33;7.40;;;2.40;;
13244;SDS011;6689;53.400;12.486;2023-03-23T01:58:04;6.80;;;3.45;;
13244;SDS011;6689;53.400;12.486;2023-03-23T02:00:33;5.50;;;2.60;;
13244;SDS011;6689;53.400;12.486;2023-03-23T02:03:03;7.95;;;2.75;;
13244;SDS011;6689;53.400;12.486;2023-03-23T02:05:32;5.60;;;2.47;;
13244;SDS011;6689;53.400;12.486;2023-03-23T02:08:03;8.05;;;2.30;;
13244;SDS011;6689;53.400;12.486;2023-03-23T02:10:33;5.07;;;2.20;;
13244;SDS011;6689;53.400;12.486;2023-03-23T02:13:02;5.10;;;2.88;;
13244;SDS011;6689;53.400;12.486;2023-03-23T02:15:33;5.07;;;2.53;;
13244;SDS011;6689;53.400;12.486;2023-03-23T02:18:15;7.97;;;3.60;;
13244;SDS011;6689;53.400;12.486;2023-03-23T02:21:13;6.38;;;2.67;;
13244;SDS011;6689;53.400;12.486;2023-03-23T02:24:16;5.38;;;3.05;;
13244;SDS011;6689;53.400;12.486;2023-03-23T02:27:03;5.25;;;2.55;;
13244;SDS011;6689;53.400;12.486;2023-03-23T02:33:05;6.28;;;2.53;;
13244;SDS011;6689;53.400;12.486;2023-03-23T02:35:44;4.43;;;2.80;;
13244;SDS011;6689;53.400;12.486;2023-03-23T02:38:16;5.75;;;3.10;;
13244;SDS011;6689;53.400;12.486;2023-03-23T02:40:48;4.07;;;2.85;;
13244;SDS011;6689;53.400;12.486;2023-03-23T02:43:17;4.57;;;3.13;;
13244;SDS011;6689;53.400;12.486;2023-03-23T02:45:48;5.70;;;3.10;;
13244;SDS011;6689;53.400;12.486;2023-03-23T02:48:20;6.45;;;3.78;;
13244;SDS011;6689;53.400;12.486;2023-03-23T02:50:53;5.10;;;3.20;;
13244;SDS011;6689;53.400;12.486;2023-03-23T02:53:23;6.60;;;3.15;;
13244;SDS011;6689;53.400;12.486;2023-03-23T02:55:53;8.65;;;3.40;;
13244;SDS011;6689;53.400;12.486;2023-03-23T02:58:23;5.10;;;3.00;;
13244;SDS011;6689;53.400;12.486;2023-03-23T03:00:51;6.30;;;3.22;;
13244;SDS011;6689;53.400;12.486;2023-03-23T03:03:20;7.55;;;3.47;;
13244;SDS011;6689;53.400;12.486;2023-03-23T03:05:51;3.85;;;3.20;;
13244;SDS011;6689;53.400;12.486;2023-03-23T03:08:26;8.30;;;3.00;;
13244;SDS011;6689;53.400;12.486;2023-03-23T03:11:02;7.03;;;3.38;;
13244;SDS011;6689;53.400;12.486;2023-03-23T03:13:35;6.30;;;3.47;;
13244;SDS011;6689;53.400;12.486;2023-03-23T03:16:09;5.22;;;3.20;;
13244;SDS011;6689;53.400;12.486;2023-03-23T03:18:44;8.02;;;3.33;;
13244;SDS011;6689;53.400;12.486;2023-03-23T03:21:15;5.30;;;3.08;;
13244;SDS011;6689;53.400;12.486;2023-03-23T03:23:51;6.20;;;3.47;;
13244;SDS011;6689;53.400;12.486;2023-03-23T03:26:24;7.85;;;3.25;;
13244;SDS011;6689;53.400;12.486;2023-03-23T03:28:53;7.50;;;3.40;;
13244;SDS011;6689;53.400;12.486;2023-03-23T03:31:22;5.07;;;3.55;;
13244;SDS011;6689;53.400;12.486;2023-03-23T03:33:54;4.10;;;3.35;;
13244;SDS011;6689;53.400;12.486;2023-03-23T03:36:23;7.38;;;3.60;;
13244;SDS011;6689;53.400;12.486;2023-03-23T03:38:53;10.93;;;3.75;;
13244;SDS011;6689;53.400;12.486;2023-03-23T03:41:22;6.90;;;3.53;;
13244;SDS011;6689;53.400;12.486;2023-03-23T03:43:49;7.20;;;3.83;;
13244;SDS011;6689;53.400;12.486;2023-03-23T03:46:17;7.32;;;3.70;;
13244;SDS011;6689;53.400;12.486;2023-03-23T03:48:44;5.30;;;4.00;;
13244;SDS011;6689;53.400;12.486;2023-03-23T03:51:13;7.28;;;3.80;;
13244;SDS011;6689;53.400;12.486;2023-03-23T03:53:40;6.70;;;3.85;;
13244;SDS011;6689;53.400;12.486;2023-03-23T03:56:08;6.15;;;3.83;;
13244;SDS011;6689;53.400;12.486;2023-03-23T03:58:36;6.75;;;3.85;;
13244;SDS011;6689;53.400;12.486;2023-03-23T04:01:04;6.03;;;3.70;;
13244;SDS011;6689;53.400;12.486;2023-03-23T04:03:31;6.88;;;3.72;;
13244;SDS011;6689;53.400;12.486;2023-03-23T04:06:00;6.28;;;3.83;;
13244;SDS011;6689;53.400;12.486;2023-03-23T04:08:31;6.20;;;4.63;;
13244;SDS011;6689;53.400;12.486;2023-03-23T04:10:58;5.72;;;4.07;;
13244;SDS011;6689;53.400;12.486;2023-03-23T04:13:25;9.10;;;4.47;;
13244;SDS011;6689;53.400;12.486;2023-03-23T04:15:53;8.18;;;4.55;;
13244;SDS011;6689;53.400;12.486;2023-03-23T04:18:20;11.05;;;5.35;;
13244;SDS011;6689;53.400;12.486;2023-03-23T04:20:48;6.85;;;4.93;;
13244;SDS011;6689;53.400;12.486;2023-03-23T04:23:16;8.13;;;4.28;;
13244;SDS011;6689;53.400;12.486;2023-03-23T04:25:46;6.22;;;4.82;;
13244;SDS011;6689;53.400;12.486;2023-03-23T04:28:14;7.40;;;4.68;;
13244;SDS011;6689;53.400;12.486;2023-03-23T04:30:44;8.95;;;4.75;;
13244;SDS011;6689;53.400;12.486;2023-03-23T04:33:14;6.20;;;4.40;;
13244;SDS011;6689;53.400;12.486;2023-03-23T04:35:42;6.70;;;4.60;;
13244;SDS011;6689;53.400;12.486;2023-03-23T04:38:11;5.85;;;4.28;;
13244;SDS011;6689;53.400;12.486;2023-03-23T04:40:39;5.80;;;4.63;;
13244;SDS011;6689;53.400;12.486;2023-03-23T04:43:10;7.50;;;4.53;;
13244;SDS011;6689;53.400;12.486;2023-03-23T04:45:39;8.43;;;4.78;;
13244;SDS011;6689;53.400;12.486;2023-03-23T04:48:11;7.00;;;4.68;;
13244;SDS011;6689;53.400;12.486;2023-03-23T04:50:39;9.73;;;4.55;;
13244;SDS011;6689;53.400;12.486;2023-03-23T04:53:06;11.00;;;4.38;;
13244;SDS011;6689;53.400;12.486;2023-03-23T04:55:35;8.23;;;5.35;;
13244;SDS011;6689;53.400;12.486;2023-03-23T04:58:03;7.20;;;4.68;;
13244;SDS011;6689;53.400;12.486;2023-03-23T05:00:32;6.55;;;5.22;;
13244;SDS011;6689;53.400;12.486;2023-03-23T05:03:00;6.80;;;4.95;;
13244;SDS011;6689;53.400;12.486;2023-03-23T05:05:28;6.70;;;4.65;;
13244;SDS011;6689;53.400;12.486;2023-03-23T05:07:57;9.27;;;4.88;;
13244;SDS011;6689;53.400;12.486;2023-03-23T05:10:24;7.90;;;4.53;;
13244;SDS011;6689;53.400;12.486;2023-03-23T05:12:52;6.18;;;4.57;;
13244;SDS011;6689;53.400;12.486;2023-03-23T05:15:19;7.40;;;5.07;;
13244;SDS011;6689;53.400;12.486;2023-03-23T05:17:50;8.95;;;5.72;;
13244;SDS011;6689;53.400;12.486;2023-03-23T05:20:18;7.60;;;4.82;;
13244;SDS011;6689;53.400;12.486;2023-03-23T05:22:47;7.97;;;4.47;;
13244;SDS011;6689;53.400;12.486;2023-03-23T05:25:15;7.25;;;4.75;;
13244;SDS011;6689;53.400;12.486;2023-03-23T05:27:44;5.90;;;4.60;;
13244;SDS011;6689;53.400;12.486;2023-03-23T05:30:14;7.50;;;4.78;;
13244;SDS011;6689;53.400;12.486;2023-03-23T05:32:42;7.72;;;5.32;;
13244;SDS011;6689;53.400;12.486;2023-03-23T05:35:12;8.10;;;4.97;;
13244;SDS011;6689;53.400;12.486;2023-03-23T05:37:40;8.38;;;5.57;;
13244;SDS011;6689;53.400;12.486;2023-03-23T05:40:09;8.35;;;4.50;;
13244;SDS011;6689;53.400;12.486;2023-03-23T05:42:38;9.20;;;5.13;;
13244;SDS011;6689;53.400;12.486;2023-03-23T05:45:08;7.25;;;4.88;;
13244;SDS011;6689;53.400;12.486;2023-03-23T05:47:36;6.57;;;4.95;;
13244;SDS011;6689;53.400;12.486;2023-03-23T05:50:04;6.65;;;4.55;;
13244;SDS011;6689;53.400;12.486;2023-03-23T05:52:34;10.30;;;4.53;;
13244;SDS011;6689;53.400;12.486;2023-03-23T05:55:01;10.93;;;4.88;;
13244;SDS011;6689;53.400;12.486;2023-03-23T05:57:30;9.65;;;4.88;;
13244;SDS011;6689;53.400;12.486;2023-03-23T05:59:58;9.57;;;4.65;;
13244;SDS011;6689;53.400;12.486;2023-03-23T06:02:31;7.47;;;4.80;;
13244;SDS011;6689;53.400;12.486;2023-03-23T06:04:59;6.15;;;4.63;;
13244;SDS011;6689;53.400;12.486;2023-03-23T06:07:28;10.65;;;5.03;;
13244;SDS011;6689;53.400;12.486;2023-03-23T06:09:57;8.35;;;4.90;;
13244;SDS011;6689;53.400;12.486;2023-03-23T06:12:25;5.65;;;4.35;;
13244;SDS011;6689;53.400;12.486;2023-03-23T06:14:52;6.10;;;4.55;;
13244;SDS011;6689;53.400;12.486;2023-03-23T06:17:21;8.40;;;4.65;;
13244;SDS011;6689;53.400;12.486;2023-03-23T06:19:48;5.38;;;3.85;;
13244;SDS011;6689;53.400;12.486;2023-03-23T06:22:15;8.13;;;4.40;;
13244;SDS011;6689;53.400;12.486;2023-03-23T06:24:43;11.07;;;4.57;;
13244;SDS011;6689;53.400;12.486;2023-03-23T06:27:12;7.70;;;4.03;;
13244;SDS011;6689;53.400;12.486;2023-03-23T06:29:41;8.45;;;4.60;;
13244;SDS011;6689;53.400;12.486;2023-03-23T06:32:09;9.38;;;4.70;;
13244;SDS011;6689;53.400;12.486;2023-03-23T06:34:40;7.25;;;4.53;;
13244;SDS011;6689;53.400;12.486;2023-03-23T06:37:09;6.45;;;4.55;;
13244;SDS011;6689;53.400;12.486;2023-03-23T06:39:37;5.32;;;4.10;;
13244;SDS011;6689;53.400;12.486;2023-03-23T06:42:08;8.18;;;4.80;;
13244;SDS011;6689;53.400;12.486;2023-03-23T06:44:38;8.50;;;4.95;;
13244;SDS011;6689;53.400;12.486;2023-03-23T06:47:06;9.93;;;4.60;;
13244;SDS011;6689;53.400;12.486;2023-03-23T06:49:34;8.05;;;4.57;;
13244;SDS011;6689;53.400;12.486;2023-03-23T06:52:01;8.50;;;4.93;;
13244;SDS011;6689;53.400;12.486;2023-03-23T06:54:29;8.27;;;4.40;;
13244;SDS011;6689;53.400;12.486;2023-03-23T06:56:56;7.80;;;4.30;;
13244;SDS011;6689;53.400;12.486;2023-03-23T06:59:23;8.20;;;4.43;;
13244;SDS011;6689;53.400;12.486;2023-03-23T07:01:52;9.02;;;4.80;;
13244;SDS011;6689;53.400;12.486;2023-03-23T07:04:20;7.18;;;4.65;;
13244;SDS011;6689;53.400;12.486;2023-03-23T07:06:48;7.47;;;4.82;;
13244;SDS011;6689;53.400;12.486;2023-03-23T07:09:15;8.45;;;5.10;;
13244;SDS011;6689;53.400;12.486;2023-03-23T07:11:43;7.60;;;4.90;;
13244;SDS011;6689;53.400;12.486;2023-03-23T07:14:12;8.93;;;5.35;;
13244;SDS011;6689;53.400;12.486;2023-03-23T07:16:41;7.15;;;6.00;;
13244;SDS011;6689;53.400;12.486;2023-03-23T07:19:10;9.35;;;5.22;;
13244;SDS011;6689;53.400;12.486;2023-03-23T07:21:37;6.55;;;4.72;;
13244;SDS011;6689;53.400;12.486;2023-03-23T07:24:05;9.27;;;4.38;;
13244;SDS011;6689;53.400;12.486;2023-03-23T07:26:36;4.53;;;3.40;;
13244;SDS011;6689;53.400;12.486;2023-03-23T07:29:04;4.90;;;3.92;;
13244;SDS011;6689;53.400;12.486;2023-03-23T07:31:32;4.65;;;3.60;;
13244;SDS011;6689;53.400;12.486;2023-03-23T07:34:00;5.07;;;3.88;;
13244;SDS011;6689;53.400;12.486;2023-03-23T07:36:29;5.70;;;4.13;;
13244;SDS011;6689;53.400;12.486;2023-03-23T07:38:58;6.97;;;4.00;;
13244;SDS011;6689;53.400;12.486;2023-03-23T07:41:25;7.40;;;3.25;;
13244;SDS011;6689;53.400;12.486;2023-03-23T07:43:53;6.25;;;4.10;;
13244;SDS011;6689;53.400;12.486;2023-03-23T07:46:21;4.88;;;3.58;;
13244;SDS011;6689;53.400;12.486;2023-03-23T07:48:48;5.18;;;3.17;;
13244;SDS011;6689;53.400;12.486;2023-03-23T07:51:16;7.10;;;2.90;;
13244;SDS011;6689;53.400;12.486;2023-03-23T07:53:45;4.57;;;3.50;;
13244;SDS011;6689;53.400;12.486;2023-03-23T07:56:12;7.68;;;3.17;;
13244;SDS011;6689;53.400;12.486;2023-03-23T07:58:43;5.40;;;3.25;;
13244;SDS011;6689;53.400;12.486;2023-03-23T08:01:11;6.45;;;3.13;;
13244;SDS011;6689;53.400;12.486;2023-03-23T08:03:39;7.65;;;2.63;;
13244;SDS011;6689;53.400;12.486;2023-03-23T08:06:07;4.20;;;2.50;;
13244;SDS011;6689;53.400;12.486;2023-03-23T08:08:36;8.50;;;3.40;;
13244;SDS011;6689;53.400;12.486;2023-03-23T08:11:06;4.55;;;2.78;;
13244;SDS011;6689;53.400;12.486;2023-03-23T08:13:34;4.57;;;2.78;;
13244;SDS011;6689;53.400;12.486;2023-03-23T08:16:02;3.83;;;2.72;;
13244;SDS011;6689;53.400;12.486;2023-03-23T08:18:30;3.67;;;2.60;;
13244;SDS011;6689;53.400;12.486;2023-03-23T08:21:00;7.03;;;2.53;;
13244;SDS011;6689;53.400;12.486;2023-03-23T08:23:29;4.15;;;2.40;;
13244;SDS011;6689;53.400;12.486;2023-03-23T08:25:57;5.25;;;2.75;;
13244;SDS011;6689;53.400;12.486;2023-03-23T08:28:27;3.85;;;2.80;;
13244;SDS011;6689;53.400;12.486;2023-03-23T08:30:55;3.50;;;2.15;;
13244;SDS011;6689;53.400;12.486;2023-03-23T08:33:22;3.00;;;2.10;;
13244;SDS011;6689;53.400;12.486;2023-03-23T08:35:54;3.50;;;2.40;;
13244;SDS011;6689;53.400;12.486;2023-03-23T08:38:22;3.55;;;2.20;;
13244;SDS011;6689;53.400;12.486;2023-03-23T08:40:50;5.32;;;2.42;;
13244;SDS011;6689;53.400;12.486;2023-03-23T08:43:17;5.38;;;2.20;;
13244;SDS011;6689;53.400;12.486;2023-03-23T08:45:46;2.97;;;2.20;;
13244;SDS011;6689;53.400;12.486;2023-03-23T08:48:13;3.78;;;2.40;;
13244;SDS011;6689;53.400;12.486;2023-03-23T08:50:41;3.15;;;2.15;;
13244;SDS011;6689;53.400;12.486;2023-03-23T08:53:09;4.50;;;2.30;;
13244;SDS011;6689;53.400;12.486;2023-03-23T08:55:37;5.32;;;3.03;;
13244;SDS011;6689;53.400;12.486;2023-03-23T08:58:08;5.32;;;2.30;;
13244;SDS011;6689;53.400;12.486;2023-03-23T09:00:35;3.95;;;2.00;;
13244;SDS011;6689;53.400;12.486;2023-03-23T09:03:04;3.67;;;1.80;;
13244;SDS011;6689;53.400;12.486;2023-03-23T09:05:32;3.67;;;2.00;;
13244;SDS011;6689;53.400;12.486;2023-03-23T09:07:59;2.92;;;2.15;;
13244;SDS011;6689;53.400;12.486;2023-03-23T09:10:29;2.20;;;1.75;;
13244;SDS011;6689;53.400;12.486;2023-03-23T09:12:56;2.85;;;1.77;;
13244;SDS011;6689;53.400;12.486;2023-03-23T09:15:24;2.70;;;1.85;;
13244;SDS011;6689;53.400;12.486;2023-03-23T09:17:52;2.83;;;1.60;;
13244;SDS011;6689;53.400;12.486;2023-03-23T09:20:24;4.47;;;2.03;;
13244;SDS011;6689;53.400;12.486;2023-03-23T09:22:54;3.00;;;1.65;;
13244;SDS011;6689;53.400;12.486;2023-03-23T09:25:23;3.13;;;1.90;;
13244;SDS011;6689;53.400;12.486;2023-03-23T09:27:53;5.10;;;1.73;;
13244;SDS011;6689;53.400;12.486;2023-03-23T09:30:22;6.03;;;1.85;;
13244;SDS011;6689;53.400;12.486;2023-03-23T09:32:51;2.63;;;1.70;;
13244;SDS011;6689;53.400;12.486;2023-03-23T09:35:19;2.33;;;1.70;;
13244;SDS011;6689;53.400;12.486;2023-03-23T09:37:49;2.75;;;1.98;;
13244;SDS011;6689;53.400;12.486;2023-03-23T09:40:19;3.20;;;1.83;;
13244;SDS011;6689;53.400;12.486;2023-03-23T09:42:55;2.80;;;2.08;;
13244;SDS011;6689;53.400;12.486;2023-03-23T09:45:35;3.47;;;1.70;;
13244;SDS011;6689;53.400;12.486;2023-03-23T09:48:20;5.13;;;2.60;;
13244;SDS011;6689;53.400;12.486;2023-03-23T09:50:57;3.50;;;1.83;;
13244;SDS011;6689;53.400;12.486;2023-03-23T09:53:32;5.93;;;2.30;;
13244;SDS011;6689;53.400;12.486;2023-03-23T09:56:08;3.33;;;2.30;;
13244;SDS011;6689;53.400;12.486;2023-03-23T09:58:45;2.70;;;1.95;;
13244;SDS011;6689;53.400;12.486;2023-03-23T10:01:19;3.17;;;2.05;;
13244;SDS011;6689;53.400;12.486;2023-03-23T10:03:51;3.72;;;2.80;;
13244;SDS011;6689;53.400;12.486;2023-03-23T10:06:26;3.47;;;2.20;;
13244;SDS011;6689;53.400;12.486;2023-03-23T10:08:58;3.70;;;2.20;;
13244;SDS011;6689;53.400;12.486;2023-03-23T10:11:31;3.13;;;2.03;;
13244;SDS011;6689;53.400;12.486;2023-03-23T10:14:14;3.08;;;1.90;;
13244;SDS011;6689;53.400;12.486;2023-03-23T10:16:54;4.10;;;2.10;;
13244;SDS011;6689;53.400;12.486;2023-03-23T10:19:33;5.05;;;2.53;;
13244;SDS011;6689;53.400;12.486;2023-03-23T10:22:04;3.65;;;2.22;;
13244;SDS011;6689;53.400;12.486;2023-03-23T10:24:39;4.10;;;2.10;;
13244;SDS011;6689;53.400;12.486;2023-03-23T10:27:16;3.53;;;2.17;;
13244;SDS011;6689;53.400;12.486;2023-03-23T10:29:50;4.28;;;2.20;;
13244;SDS011;6689;53.400;12.486;2023-03-23T10:32:23;3.50;;;2.58;;
13244;SDS011;6689;53.400;12.486;2023-03-23T10:35:06;4.72;;;2.33;;
13244;SDS011;6689;53.400;12.486;2023-03-23T10:37:42;4.32;;;2.00;;
13244;SDS011;6689;53.400;12.486;2023-03-23T10:40:15;4.32;;;2.22;;
13244;SDS011;6689;53.400;12.486;2023-03-23T10:42:45;3.83;;;2.08;;
13244;SDS011;6689;53.400;12.486;2023-03-23T10:45:14;3.58;;;2.30;;
13244;SDS011;6689;53.400;12.486;2023-03-23T10:47:46;2.80;;;2.10;;
13244;SDS011;6689;53.400;12.486;2023-03-23T10:50:17;3.80;;;2.45;;
13244;SDS011;6689;53.400;12.486;2023-03-23T10:52:49;4.15;;;1.80;;
13244;SDS011;6689;53.400;12.486;2023-03-23T10:55:20;5.10;;;2.40;;
13244;SDS011;6689;53.400;12.486;2023-03-23T10:57:58;3.55;;;2.40;;
13244;SDS011;6689;53.400;12.486;2023-03-23T11:00:27;4.20;;;2.10;;
13244;SDS011;6689;53.400;12.486;2023-03-23T11:02:59;2.70;;;2.15;;
13244;SDS011;6689;53.400;12.486;2023-03-23T11:05:32;4.03;;;2.30;;
13244;SDS011;6689;53.400;12.486;2023-03-23T11:08:10;4.35;;;2.08;;
13244;SDS011;6689;53.400;12.486;2023-03-23T11:10:40;5.10;;;2.33;;
13244;SDS011;6689;53.400;12.486;2023-03-23T11:13:12;8.27;;;2.90;;
13244;SDS011;6689;53.400;12.486;2023-03-23T11:15:41;5.85;;;2.90;;
13244;SDS011;6689;53.400;12.486;2023-03-23T11:18:18;6.13;;;2.53;;
13244;SDS011;6689;53.400;12.486;2023-03-23T11:20:50;6.25;;;2.75;;
13244;SDS011;6689;53.400;12.486;2023-03-23T11:23:22;4.60;;;2.60;;
13244;SDS011;6689;53.400;12.486;2023-03-23T11:25:54;5.82;;;2.55;;
13244;SDS011;6689;53.400;12.486;2023-03-23T11:28:26;4.00;;;2.45;;
13244;SDS011;6689;53.400;12.486;2023-03-23T11:31:01;6.13;;;2.30;;
13244;SDS011;6689;53.400;12.486;2023-03-23T11:33:30;5.63;;;3.67;;
13244;SDS011;6689;53.400;12.486;2023-03-23T11:36:04;4.75;;;2.20;;
13244;SDS011;6689;53.400;12.486;2023-03-23T11:38:33;4.82;;;2.72;;
13244;SDS011;6689;53.400;12.486;2023-03-23T11:41:08;7.43;;;3.13;;
13244;SDS011;6689;53.400;12.486;2023-03-23T11:43:39;4.88;;;2.97;;
13244;SDS011;6689;53.400;12.486;2023-03-23T11:46:13;5.43;;;2.55;;
13244;SDS011;6689;53.400;12.486;2023-03-23T11:48:49;4.10;;;1.73;;
13244;SDS011;6689;53.400;12.486;2023-03-23T11:51:23;2.85;;;1.73;;
13244;SDS011;6689;53.400;12.486;2023-03-23T11:56:29;2.20;;;1.00;;
13244;SDS011;6689;53.400;12.486;2023-03-23T11:58:59;4.03;;;1.10;;
13244;SDS011;6689;53.400;12.486;2023-03-23T12:01:36;1.05;;;0.73;;
13244;SDS011;6689;53.400;12.486;2023-03-23T12:04:21;2.40;;;1.30;;
13244;SDS011;6689;53.400;12.486;2023-03-23T12:10:13;3.30;;;1.25;;
13244;SDS011;6689;53.400;12.486;2023-03-23T12:12:50;3.55;;;1.30;;
13244;SDS011;6689;53.400;12.486;2023-03-23T12:15:24;6.38;;;1.55;;
13244;SDS011;6689;53.400;12.486;2023-03-23T12:17:59;4.38;;;1.27;;
13244;SDS011;6689;53.400;12.486;2023-03-23T12:20:39;4.45;;;1.55;;
13244;SDS011;6689;53.400;12.486;2023-03-23T12:23:21;4.13;;;1.30;;
13244;SDS011;6689;53.400;12.486;2023-03-23T12:28:59;5.10;;;1.50;;
13244;SDS011;6689;53.400;12.486;2023-03-23T12:31:48;4.88;;;1.45;;
13244;SDS011;6689;53.400;12.486;2023-03-23T12:34:24;3.47;;;1.38;;
13244;SDS011;6689;53.400;12.486;2023-03-23T12:37:11;5.13;;;1.52;;
13244;SDS011;6689;53.400;12.486;2023-03-23T12:45:37;3.72;;;1.40;;
13244;SDS011;6689;53.400;12.486;2023-03-23T12:48:18;4.25;;;1.95;;
13244;SDS011;6689;53.400;12.486;2023-03-23T12:51:00;6.13;;;1.30;;
13244;SDS011;6689;53.400;12.486;2023-03-23T12:53:36;5.80;;;1.75;;
13244;SDS011;6689;53.400;12.486;2023-03-23T12:56:11;5.90;;;1.70;;
13244;SDS011;6689;53.400;12.486;2023-03-23T12:58:46;5.25;;;1.50;;
13244;SDS011;6689;53.400;12.486;2023-03-23T13:01:18;5.68;;;1.50;;
13244;SDS011;6689;53.400;12.486;2023-03-23T13:03:49;5.75;;;1.50;;
13244;SDS011;6689;53.400;12.486;2023-03-23T13:06:22;6.05;;;1.45;;
13244;SDS011;6689;53.400;12.486;2023-03-23T13:11:26;5.95;;;1.52;;
13244;SDS011;6689;53.400;12.486;2023-03-23T13:13:59;5.38;;;1.30;;
13244;SDS011;6689;53.400;12.486;2023-03-23T13:16:43;2.17;;;1.05;;
13244;SDS011;6689;53.400;12.486;2023-03-23T13:19:17;4.07;;;1.23;;
13244;SDS011;6689;53.400;12.486;2023-03-23T13:21:54;4.82;;;0.90;;
13244;SDS011;6689;53.400;12.486;2023-03-23T13:24:26;4.65;;;1.17;;
13244;SDS011;6689;53.400;12.486;2023-03-23T13:26:57;7.07;;;1.63;;
13244;SDS011;6689;53.400;12.486;2023-03-23T13:29:26;3.92;;;0.90;;
13244;SDS011;6689;53.400;12.486;2023-03-23T13:32:05;4.03;;;1.35;;
13244;SDS011;6689;53.400;12.486;2023-03-23T13:34:38;3.88;;;1.17;;
13244;SDS011;6689;53.400;12.486;2023-03-23T13:37:10;3.38;;;1.17;;
13244;SDS011;6689;53.400;12.486;2023-03-23T13:39:48;3.67;;;1.10;;
13244;SDS011;6689;53.400;12.486;2023-03-23T13:42:19;3.65;;;1.25;;
13244;SDS011;6689;53.400;12.486;2023-03-23T13:47:48;2.97;;;1.23;;
13244;SDS011;6689;53.400;12.486;2023-03-23T13:50:25;8.90;;;1.92;;
13244;SDS011;6689;53.400;12.486;2023-03-23T13:52:57;6.07;;;1.42;;
13244;SDS011;6689;53.400;12.486;2023-03-23T13:55:30;3.45;;;1.30;;
13244;SDS011;6689;53.400;12.486;2023-03-23T13:58:11;4.18;;;1.20;;
13244;SDS011;6689;53.400;12.486;2023-03-23T14:00:50;3.38;;;1.27;;
13244;SDS011;6689;53.400;12.486;2023-03-23T14:03:35;1.23;;;0.80;;
13244;SDS011;6689;53.400;12.486;2023-03-23T14:06:05;2.80;;;1.08;;
13244;SDS011;6689;53.400;12.486;2023-03-23T14:08:38;7.80;;;1.23;;
13244;SDS011;6689;53.400;12.486;2023-03-23T14:11:12;3.55;;;1.25;;
13244;SDS011;6689;53.400;12.486;2023-03-23T14:13:45;6.13;;;2.00;;
13244;SDS011;6689;53.400;12.486;2023-03-23T14:16:19;7.45;;;2.70;;
13244;SDS011;6689;53.400;12.486;2023-03-23T14:18:51;5.15;;;2.20;;
13244;SDS011;6689;53.400;12.486;2023-03-23T14:21:26;5.43;;;1.92;;
13244;SDS011;6689;53.400;12.486;2023-03-23T14:24:01;8.85;;;2.22;;
13244;SDS011;6689;53.400;12.486;2023-03-23T14:26:32;2.50;;;1.27;;
13244;SDS011;6689;53.400;12.486;2023-03-23T14:29:01;4.50;;;1.70;;
13244;SDS011;6689;53.400;12.486;2023-03-23T14:31:30;4.63;;;1.88;;
13244;SDS011;6689;53.400;12.486;2023-03-23T14:34:03;5.55;;;1.92;;
13244;SDS011;6689;53.400;12.486;2023-03-23T14:36:34;3.70;;;1.67;;
13244;SDS011;6689;53.400;12.486;2023-03-23T14:39:06;5.82;;;1.80;;
13244;SDS011;6689;53.400;12.486;2023-03-23T14:41:39;7.82;;;1.73;;
13244;SDS011;6689;53.400;12.486;2023-03-23T14:44:10;4.05;;;1.80;;
13244;SDS011;6689;53.400;12.486;2023-03-23T14:46:41;5.50;;;2.17;;
13244;SDS011;6689;53.400;12.486;2023-03-23T14:49:12;3.63;;;1.40;;
13244;SDS011;6689;53.400;12.486;2023-03-23T14:51:51;3.92;;;1.65;;
13244;SDS011;6689;53.400;12.486;2023-03-23T14:54:24;4.82;;;1.80;;
13244;SDS011;6689;53.400;12.486;2023-03-23T14:56:52;5.15;;;1.65;;
13244;SDS011;6689;53.400;12.486;2023-03-23T14:59:20;2.90;;;1.33;;
13244;SDS011;6689;53.400;12.486;2023-03-23T15:01:49;10.52;;;2.35;;
13244;SDS011;6689;53.400;12.486;2023-03-23T15:04:20;6.82;;;1.58;;
13244;SDS011;6689;53.400;12.486;2023-03-23T15:06:50;5.97;;;2.20;;
13244;SDS011;6689;53.400;12.486;2023-03-23T15:11:54;5.60;;;3.90;;
13244;SDS011;6689;53.400;12.486;2023-03-23T15:14:23;4.85;;;1.63;;
13244;SDS011;6689;53.400;12.486;2023-03-23T15:16:54;4.40;;;2.95;;
13244;SDS011;6689;53.400;12.486;2023-03-23T15:19:27;10.30;;;5.82;;
13244;SDS011;6689;53.400;12.486;2023-03-23T15:22:03;5.80;;;2.90;;
13244;SDS011;6689;53.400;12.486;2023-03-23T15:24:33;8.73;;;5.85;;
13244;SDS011;6689;53.400;12.486;2023-03-23T15:27:09;9.45;;;4.57;;
13244;SDS011;6689;53.400;12.486;2023-03-23T15:29:46;3.95;;;2.20;;
13244;SDS011;6689;53.400;12.486;2023-03-23T15:32:19;3.72;;;1.70;;
13244;SDS011;6689;53.400;12.486;2023-03-23T15:34:49;3.15;;;1.77;;
13244;SDS011;6689;53.400;12.486;2023-03-23T15:37:18;4.95;;;1.92;;